Terminal Aerodrome Forecast
Issued by NWS

Home | Current Version | Previous Version | Graphics & Text | Print | Product List | Glossary On
Versions: 1 2 3 4 5 6 7 8 9 10 11 12 13 14 15 16 17 18
042
FTUS43 KTOP 150936 AAB
TAFMHK
TAF AMD
KMHK 150936Z 1510/1606 07004KT 6SM BR OVC025
      TEMPO 1510/1513 5SM -FZDZ OVC019
     FM151300 08004KT 6SM -FZRA BR OVC015
      TEMPO 1513/1517 4SM FZRA BR OVC008
     FM152200 07005KT 3SM BR VCSH OVC008=

USA.gov is the U.S. government's official web portal to all federal, state and local government web resources and services.